Relevés horaires Matro (Suisse)


Relevés horaires à Matro - Mercredi 03 Avr. 2019
Heure UTC1 Température [°C] Vent [km/h] Hum. [%] Pres.4 [hPa] Visi. [Km] Nébu. [octa] Préc.5 [mm] Cond.
2m. Res. Ros. Dir.2 Vit. Moy. Raf.3
23:00 -0.5 -10.2 -2.0 SE 74.1 -- 96.3 90 850(-1.6/3h) -- -- -- --
22:00 -0.6 -10 -2.5 SSE 66.7 -- 90.7 87 850(-0.9/3h) -- -- -- --
21:00 -1.6 -11.3 -1.6 SSE 64.8 -- 107.4 100 850(-0.7/3h) -- -- -- --
20:00 -0.6 -10.2 -0.6 SSE 70.4 -- 100.0 100 850(-0.8/3h) -- -- -- --
19:00 -2.0 -12.7 -3.7 SSE 81.5 -- 100.0 88 850(-1.6/3h) -- -- -- --
18:00 -2.4 -12.3 -2.4 SSE 63.0 -- 90.7 100 850(-1.7/3h) -- -- -- --
17:00 -2.7 -13 -2.7 SSE 68.5 -- 90.7 100 850(-1.7/3h) -- -- -- --
16:00 -2.7 -12.8 -2.7 SE 64.8 -- 83.3 100 850(-1.5/3h) -- -- -- --
15:00 -2.8 -12.5 -2.8 SSE 57.4 -- 79.6 100 850(-1.3/3h) -- -- -- --
14:00 -3.1 -12.4 -3.1 SSE 50.0 -- 74.1 100 850(-1.3/3h) -- -- -- --
13:00 -2.8 -12.6 -3.2 SSE 59.3 -- 79.6 97 850(-1.5/3h) -- -- -- --
12:00 -3.1 -12.5 -3.1 SSE 51.9 -- 75.9 100 850(-1.3/3h) -- -- -- --
11:00 -3.0 -13 -3.0 SSE 61.1 -- 75.9 100 850(-1.2/3h) -- -- -- --
10:00 -3.2 -11.7 -3.2 SSE 40.7 -- 57.4 100 850(-0.5/3h) -- -- -- --
09:00 -3.3 -12.3 -3.3 SSE 46.3 -- 61.1 100 850(-0.7/3h) -- -- -- --
08:00 -3.2 -12.4 -3.2 SSE 48.2 -- 55.6 100 850(-0.3/3h) -- -- -- --
07:00 -3.1 -11.9 -3.1 S 44.4 -- 57.4 100 850(-0.6/3h) -- -- -- --
06:00 -3.2 -12.1 -3.2 SSE 44.4 -- 79.6 100 850(-0.9/3h) -- -- -- --
05:00 -3.2 -13 -3.2 SSE 57.4 -- 74.1 100 850(-1.8/3h) -- -- -- --
04:00 -3.1 -13 -4.0 SSE 59.3 -- 72.2 93 850(-1.8/3h) -- -- -- --
03:00 -3.0 -12.4 -5.8 SSE 51.9 -- 66.7 81 850 -- -- -- --
02:00 -2.6 -11.5 -3.2 SSE 48.2 -- 59.3 96 850(-1.3/3h) -- -- -- --
01:00 -2.0 -10.6 -2.2 S 46.3 -- 66.7 99 850(-1.4/3h) -- -- -- --
00:00 -1.8 -10 -1.8 S 42.6 -- 63.0 100 850(-1.4/3h) -- -- -- --

1 Coordinated Universal Time. Actuellement il est 21:00 locale et 19:00 UTC.

2 Le vent souffle depuis la direction indiquée vers la direction oposée.

3 Les rafales max. sont disponible 40 min après l'heure du relevé.

4 Pour les stations d'altitude (plus de 600m) le géopotentiel du niveau le plus proche de la pression obligatoire est indiqué.

5 Les stations disposant d'un diffuseur peuvent indiquer "trace". Cela signifie que des précipitations ont touchés le sol mais que la quantité est inférieure à 0.1 mm.

Copyright

Les données affichées sur cette page sont la propriété exclusive de Météo Suisse.

Récapitulatif de la journée
Température [°C] Vent [km/h] Ensoleillement4 [h] Precipitations totale5 [mm] Pression [Hpa]
Min1 Max.2 Moy.3 Max. Min Max.
-3.5 -0.7 0 107.4 0 h 0 min 0 850.0 850.0

1 Température minimale relevée entre 18:00 UTC la veille et 18:00 UTC le jour donné.

2 Température maximale relevée entre 06:00 UTC le jour donné et 06:00 UTC le lendemain.

3 Vent moyen de la journée basé sur les relevés horaires.

4 Ensoleillement en heures relevé entre 06:00 UTC la veille et 06:00 UTC le jour donné.

5 Précipitations totales tombées entre 06:00 UTC la jour donné et 06:00 UTC le lendemain.

Graphiques horaires